メインページ
METAR-TAF:

METAR-TAF

空港 :

Fasa, イラン

緯度: 28-58N, 経度: 053-41E, 海抜: 1383m

現時点の気象観測

当レポートは1時間10分前の17:00(UTC)に作成
南東の風 6kt
気温 14°C
湿度 58%
気圧 1018 hPa
視程10km以上
高度3500ftの雲はほとんどない, 積乱雲.
高度4000ftの雲は散在している
高度10000ftの千切れ雲あり

METAR: OISF 171700Z 14006KT 9999 FEW035CB SCT040 BKN100 14/06 Q1018 A3007

時間: 21:40 (18:10 UTC)


TAF: 見つかりません

4,000以上の空港の気象観測と天気予報(METAR報とTAF報)

利用可能な観測所は地図上に黄色い丸と赤い丸で示す。

丸の上にカーソルを重ねると観測所名を参照できる。

次にクリックすると気象観測と天気予報を参照できる。

マップの切り替え:黒色「×」印の緑ボタンをクリックして拡大、「-」印の緑ボタンをクリックして縮小、緑色の三角印をクリックして隣りの地図に切り替え


METAR-TAF: